Time;durP1;ratioP1;P1;durP2;ratioP2;P2;SDS_P1;SDS_P2;PMS_P1;PMS_P2;Temp;Humidity;BMP_temperature;BMP_pressure;BME280_temperature;BME280_humidity;BME280_pressure;Samples;Min_cycle;Max_cycle;Signal;HPM_P1;HPM_P2
2022/09/25 00:00:46;;;;;;;2.15;1.10;;;;;;;12.18;80.06;101692.47;5096873;28;20144;-88
2022/09/25 00:03:22;;;;;;;3.35;1.67;;;;;;;12.17;79.67;101682.88;5091382;28;20040;-88
2022/09/25 00:05:59;;;;;;;1.33;1.08;;;;;;;12.14;79.77;101691.72;5096747;28;20064;-88
2022/09/25 00:08:33;;;;;;;1.20;1.10;;;;;;;12.12;80.07;101696.16;5096308;28;20261;-88
2022/09/25 00:11:11;;;;;;;1.80;0.88;;;;;;;12.11;79.96;101699.69;5096615;28;20032;-88
2022/09/25 00:13:46;;;;;;;1.63;1.20;;;;;;;12.10;80.11;101711.13;5094187;28;20085;-88
2022/09/25 00:16:18;;;;;;;1.98;1.05;;;;;;;12.07;79.76;101709.44;5077268;28;20103;-89
2022/09/25 00:21:39;;;;;;;1.48;1.05;;;;;;;12.04;79.98;101706.94;5096742;28;20263;-88
2022/09/25 00:24:17;;;;;;;1.40;0.93;;;;;;;12.02;79.89;101708.72;5079417;28;20363;-88
2022/09/25 00:26:58;;;;;;;2.15;1.27;;;;;;;12.01;79.73;101709.66;5095777;28;20036;-88
2022/09/25 00:29:29;;;;;;;1.35;1.20;;;;;;;11.99;79.98;101708.84;5078495;28;20075;-88
2022/09/25 00:32:02;;;;;;;1.67;0.98;;;;;;;11.97;79.93;101702.78;5063605;28;20039;-88
2022/09/25 00:34:37;;;;;;;1.60;0.88;;;;;;;11.96;79.97;101710.72;5099182;28;20170;-88
2022/09/25 00:37:08;;;;;;;1.40;1.00;;;;;;;11.94;79.96;101702.03;5099307;28;20115;-88
2022/09/25 00:39:38;;;;;;;0.90;0.90;;;;;;;11.92;79.79;101701.22;5082692;28;20036;-88
2022/09/25 00:42:06;;;;;;;1.70;1.05;;;;;;;11.90;79.90;101702.13;5100104;28;20039;-88
2022/09/25 00:45:02;;;;;;;1.00;0.90;;;;;;;11.88;80.20;101703.91;5097943;28;20050;-88
2022/09/25 00:48:01;;;;;;;1.65;0.88;;;;;;;11.87;79.76;101701.31;5099040;28;20068;-88
2022/09/25 00:50:48;;;;;;;1.10;1.00;;;;;;;11.85;80.25;101709.25;5098372;28;20103;-88
2022/09/25 00:53:31;;;;;;;1.05;0.80;;;;;;;11.83;80.08;101702.34;5099269;28;20032;-88
2022/09/25 00:56:01;;;;;;;1.20;1.10;;;;;;;11.80;79.98;101698.03;5096895;28;20040;-88
2022/09/25 00:58:31;;;;;;;0.98;0.90;;;;;;;11.79;80.14;101698.97;5099191;28;20367;-88
2022/09/25 01:04:25;;;;;;;0.90;0.90;;;;;;;11.76;80.21;101699.03;5069889;28;20055;-88
2022/09/25 01:06:53;;;;;;;1.02;1.00;;;;;;;11.74;80.07;101697.38;5062162;28;20048;-88
2022/09/25 01:09:25;;;;;;;1.70;0.90;;;;;;;11.72;79.81;101694.81;5061049;28;20052;-88
2022/09/25 01:12:04;;;;;;;1.17;1.00;;;;;;;11.69;80.18;101693.13;5061406;28;20045;-88
2022/09/25 01:14:36;;;;;;;1.58;0.90;;;;;;;11.67;79.86;101689.69;5077642;28;20081;-88
2022/09/25 01:17:18;;;;;;;2.65;0.90;;;;;;;11.66;79.89;101697.59;5074512;28;20082;-88
2022/09/25 01:20:13;;;;;;;1.00;0.88;;;;;;;11.64;79.91;101694.19;5060644;28;20028;-88
2022/09/25 01:23:08;;;;;;;1.10;1.02;;;;;;;11.62;80.20;101698.63;5051950;28;20086;-88
2022/09/25 01:26:22;;;;;;;1.08;0.85;;;;;;;11.61;80.26;101704.78;5075108;28;20037;-88
2022/09/25 01:29:17;;;;;;;0.90;0.70;;;;;;;11.59;80.16;101696.06;5061619;28;20316;-88
2022/09/25 01:32:04;;;;;;;1.30;0.95;;;;;;;11.56;79.97;101698.81;5077671;28;20032;-88
2022/09/25 01:34:56;;;;;;;0.85;0.80;;;;;;;11.53;80.21;101699.75;5078481;28;20044;-88
2022/09/25 01:38:00;;;;;;;0.80;0.70;;;;;;;11.51;79.92;101701.56;5078259;28;20032;-88
2022/09/25 01:41:12;;;;;;;1.90;0.80;;;;;;;11.49;79.89;101698.16;5079149;28;20220;-88
2022/09/25 01:44:03;;;;;;;0.95;0.85;;;;;;;11.47;80.27;101713.91;5044499;28;20040;-89
2022/09/25 01:46:59;;;;;;;1.75;0.60;;;;;;;11.45;79.72;101707.88;5078229;28;20361;-89
2022/09/25 01:50:01;;;;;;;0.88;0.70;;;;;;;11.43;79.89;101711.47;5078515;28;20056;-88
2022/09/25 01:52:36;;;;;;;0.60;0.60;;;;;;;11.41;80.14;101708.88;5045999;28;20067;-88
2022/09/25 01:55:24;;;;;;;2.00;0.63;;;;;;;11.39;80.18;101700.19;5079176;28;20047;-88
2022/09/25 01:58:01;;;;;;;0.90;0.70;;;;;;;11.37;80.06;101709.88;5077378;28;20043;-88
2022/09/25 02:00:30;;;;;;;1.80;0.80;;;;;;;11.36;80.09;101710.78;5077957;28;20107;-88
2022/09/25 02:03:19;;;;;;;0.60;0.60;;;;;;;11.34;80.12;101707.34;5060639;28;20360;-88
2022/09/25 02:05:52;;;;;;;1.02;0.70;;;;;;;11.32;80.25;101704.75;5059124;28;20129;-88
2022/09/25 02:08:36;;;;;;;2.33;0.93;;;;;;;11.32;79.97;101703.91;5060785;28;20020;-88
2022/09/25 02:11:15;;;;;;;1.63;0.88;;;;;;;11.29;80.02;101698.75;5073554;28;20390;-88
2022/09/25 02:14:07;;;;;;;1.00;0.90;;;;;;;11.28;80.22;101705.75;5077228;28;20060;-88
2022/09/25 02:16:47;;;;;;;2.03;0.80;;;;;;;11.26;80.37;101699.72;5077223;28;20125;-88
2022/09/25 02:22:34;;;;;;;1.10;0.90;;;;;;;11.25;80.19;101702.38;5076476;28;20263;-88
2022/09/25 02:25:13;;;;;;;1.38;0.88;;;;;;;11.23;80.50;101697.16;5061183;28;20051;-88
2022/09/25 02:27:45;;;;;;;0.68;0.63;;;;;;;11.22;80.21;101703.31;5078137;28;20272;-88
2022/09/25 02:30:18;;;;;;;0.70;0.70;;;;;;;11.23;80.35;101696.31;5077200;28;20046;-88
2022/09/25 02:32:44;;;;;;;0.63;0.60;;;;;;;11.22;80.40;101698.06;5060722;28;20055;-90
2022/09/25 02:35:10;;;;;;;0.82;0.70;;;;;;;11.21;80.63;101696.34;5060689;28;20028;-90
2022/09/25 02:37:36;;;;;;;1.00;0.80;;;;;;;11.22;80.63;101707.69;5043324;28;20036;-90
2022/09/25 02:40:03;;;;;;;0.70;0.70;;;;;;;11.22;80.70;101707.69;5060654;28;20243;-90
2022/09/25 02:42:43;;;;;;;0.57;0.57;;;;;;;11.21;80.80;101703.38;5042871;28;20024;-90
2022/09/25 02:45:57;;;;;;;0.82;0.70;;;;;;;11.20;80.78;101699.03;5077706;28;20025;-90
2022/09/25 02:48:31;;;;;;;0.75;0.75;;;;;;;11.19;80.73;101700.78;5064051;28;20044;-90
2022/09/25 02:51:21;;;;;;;0.90;0.85;;;;;;;11.19;80.72;101697.28;5077937;28;20238;-90
2022/09/25 02:53:49;;;;;;;0.77;0.77;;;;;;;11.17;81.02;101694.75;5059380;28;20103;-90
2022/09/25 02:56:24;;;;;;;1.00;0.77;;;;;;;11.16;80.76;101697.41;5077363;28;20032;-90
2022/09/25 02:59:01;;;;;;;0.88;0.82;;;;;;;11.14;80.86;101693.06;5060334;28;20082;-90
2022/09/25 03:01:31;;;;;;;1.08;0.90;;;;;;;11.14;81.01;101700.91;5077393;28;20036;-89
2022/09/25 03:03:58;;;;;;;0.70;0.70;;;;;;;11.14;81.27;101700.06;5077683;28;20036;-90
2022/09/25 03:06:25;;;;;;;0.85;0.82;;;;;;;11.13;81.56;101707.09;5076901;28;20028;-90
2022/09/25 03:08:55;;;;;;;0.88;0.77;;;;;;;11.13;81.47;101709.69;5026671;28;20052;-91
2022/09/25 03:11:22;;;;;;;0.80;0.80;;;;;;;11.12;81.36;101710.59;5059348;28;20035;-90
2022/09/25 03:14:02;;;;;;;1.17;0.75;;;;;;;11.13;81.39;101709.69;5042923;28;20103;-90
2022/09/25 03:16:33;;;;;;;0.65;0.65;;;;;;;11.13;81.74;101712.31;5076797;28;20024;-90
2022/09/25 03:18:59;;;;;;;0.60;0.60;;;;;;;11.13;81.78;101714.94;5059504;28;20032;-90
2022/09/25 03:21:24;;;;;;;0.75;0.60;;;;;;;11.13;81.61;101717.56;5059192;28;20032;-90
2022/09/25 03:23:50;;;;;;;0.82;0.82;;;;;;;11.13;81.86;101722.81;5026684;28;20055;-90
2022/09/25 03:26:15;;;;;;;0.82;0.70;;;;;;;11.13;81.78;101719.31;5042466;28;20285;-90
2022/09/25 03:28:41;;;;;;;0.60;0.60;;;;;;;11.13;81.73;101719.31;5042695;28;20236;-90
2022/09/25 03:31:10;;;;;;;1.75;0.70;;;;;;;11.13;82.01;101730.69;5042767;28;20028;-90
2022/09/25 03:33:40;;;;;;;0.70;0.70;;;;;;;11.13;82.13;101717.56;5076595;28;20025;-90
2022/09/25 03:36:09;;;;;;;0.80;0.60;;;;;;;11.14;82.33;101715.78;5077018;28;20024;-90
2022/09/25 03:38:35;;;;;;;1.42;0.75;;;;;;;11.14;82.03;101715.78;5076677;28;20320;-90
2022/09/25 03:41:01;;;;;;;0.80;0.80;;;;;;;11.14;82.31;101705.31;5042690;28;20122;-90
2022/09/25 03:43:28;;;;;;;3.25;1.17;;;;;;;11.14;82.26;101705.31;5058657;28;20023;-90
2022/09/25 03:45:53;;;;;;;1.10;0.57;;;;;;;11.14;82.47;101700.06;5042393;28;20237;-90
2022/09/25 03:48:20;;;;;;;1.05;0.70;;;;;;;11.13;82.33;101688.72;5076637;28;20047;-90
2022/09/25 03:50:47;;;;;;;1.05;0.60;;;;;;;11.15;82.63;101686.03;5042550;28;20243;-90
2022/09/25 03:53:12;;;;;;;0.50;0.50;;;;;;;11.16;82.61;101685.16;5042230;28;20096;-90
2022/09/25 03:55:38;;;;;;;0.65;0.65;;;;;;;11.15;82.72;101680.78;5025814;28;20024;-90
2022/09/25 03:58:03;;;;;;;0.50;0.50;;;;;;;11.17;82.96;101679.00;5025825;28;20032;-90
2022/09/25 04:00:29;;;;;;;0.57;0.50;;;;;;;11.17;82.87;101673.78;5025322;28;20331;-90
2022/09/25 04:02:55;;;;;;;0.68;0.68;;;;;;;11.17;83.11;101679.00;5025697;28;20246;-90
2022/09/25 04:05:21;;;;;;;0.70;0.70;;;;;;;11.17;83.28;101676.38;5041667;28;20032;-90
2022/09/25 04:07:47;;;;;;;0.70;0.55;;;;;;;11.18;83.29;101677.25;5042374;28;20158;-90
2022/09/25 04:10:13;;;;;;;0.85;0.60;;;;;;;11.18;83.49;101674.63;5042010;28;20033;-89
2022/09/25 04:12:38;;;;;;;0.40;0.40;;;;;;;11.18;83.35;101672.84;5041907;28;20021;-90
2022/09/25 04:15:05;;;;;;;0.50;0.50;;;;;;;11.19;83.32;101668.44;5042417;28;20043;-90
2022/09/25 04:17:30;;;;;;;0.88;0.60;;;;;;;11.19;83.60;101663.22;5058343;28;20040;-90
2022/09/25 04:19:56;;;;;;;0.47;0.47;;;;;;;11.18;83.66;101657.13;5058702;28;20039;-90
2022/09/25 04:22:21;;;;;;;0.60;0.57;;;;;;;11.19;83.83;101665.84;5041816;28;20314;-90
2022/09/25 04:24:47;;;;;;;0.82;0.65;;;;;;;11.20;83.61;101667.56;5041819;28;20102;-90
2022/09/25 04:27:13;;;;;;;2.75;0.60;;;;;;;11.18;83.92;101664.97;5028426;28;20025;-90
2022/09/25 04:29:38;;;;;;;0.55;0.55;;;;;;;11.18;83.52;101664.13;5038509;28;20029;-90
2022/09/25 04:34:47;;;;;;;0.65;0.63;;;;;;;11.17;83.51;101668.53;5041074;28;20067;-90
2022/09/25 04:37:14;;;;;;;0.60;0.57;;;;;;;11.17;83.54;101660.66;5021868;28;20227;-90
2022/09/25 04:39:39;;;;;;;1.02;0.43;;;;;;;11.16;83.31;101658.94;5056232;28;20347;-90
2022/09/25 04:42:05;;;;;;;1.35;0.70;;;;;;;11.14;83.33;101653.72;5055164;28;20094;-90
2022/09/25 04:44:30;;;;;;;1.15;0.70;;;;;;;11.14;83.57;101655.50;5037957;28;20037;-90
2022/09/25 04:46:56;;;;;;;0.73;0.50;;;;;;;11.14;83.58;101655.50;5038677;28;20049;-90
2022/09/25 04:49:22;;;;;;;1.42;0.70;;;;;;;11.14;83.89;101658.13;5054866;28;20063;-90
2022/09/25 04:51:47;;;;;;;0.60;0.50;;;;;;;11.14;83.79;101656.34;5038204;28;20333;-90
2022/09/25 04:54:15;;;;;;;1.13;0.80;;;;;;;11.13;83.92;101657.28;5037953;28;20036;-90
2022/09/25 04:56:42;;;;;;;1.38;0.73;;;;;;;11.13;83.61;101662.50;5022306;28;20328;-90
2022/09/25 04:59:10;;;;;;;0.63;0.50;;;;;;;11.13;83.99;101659.00;5056174;28;20294;-90
2022/09/25 05:01:36;;;;;;;0.60;0.60;;;;;;;11.13;83.83;101661.63;5038353;28;20100;-90
2022/09/25 05:04:01;;;;;;;1.23;0.70;;;;;;;11.11;83.71;101660.81;5056040;28;20316;-90
2022/09/25 05:06:28;;;;;;;2.17;0.68;;;;;;;11.10;83.62;101662.59;5037833;28;20036;-89
2022/09/25 05:08:55;;;;;;;3.67;1.15;;;;;;;11.09;83.75;101666.09;5022007;28;20332;-90
2022/09/25 05:11:21;;;;;;;0.90;0.80;;;;;;;11.09;83.96;101665.25;5038275;28;20332;-90
2022/09/25 05:13:50;;;;;;;0.80;0.80;;;;;;;11.07;83.99;101656.59;5037784;28;20028;-90
2022/09/25 05:16:16;;;;;;;1.33;0.70;;;;;;;11.09;83.82;101662.63;5038061;28;20029;-90
2022/09/25 05:18:41;;;;;;;0.60;0.60;;;;;;;11.06;84.17;101660.09;5040375;28;20029;-90
2022/09/25 05:21:07;;;;;;;0.70;0.70;;;;;;;11.07;84.00;101667.91;5025650;28;20028;-90
2022/09/25 05:23:32;;;;;;;0.95;0.70;;;;;;;11.07;84.16;101661.81;5057874;28;20329;-90
2022/09/25 05:26:01;;;;;;;0.65;0.55;;;;;;;11.07;84.03;101669.69;5025307;28;20104;-90
2022/09/25 05:28:32;;;;;;;0.88;0.52;;;;;;;11.05;84.10;101664.50;5057899;28;20047;-90
2022/09/25 05:31:02;;;;;;;1.05;0.50;;;;;;;11.05;84.13;101658.41;5058200;28;20036;-90
2022/09/25 05:33:28;;;;;;;0.98;0.80;;;;;;;11.04;84.00;101660.16;5058794;28;20028;-90
2022/09/25 05:35:53;;;;;;;0.73;0.73;;;;;;;11.04;84.32;101646.19;5059367;28;20028;-90
2022/09/25 05:38:19;;;;;;;1.75;0.77;;;;;;;11.03;84.00;101653.19;5041216;28;20064;-90
2022/09/25 05:40:44;;;;;;;0.60;0.60;;;;;;;11.02;84.33;101653.22;5024868;28;20029;-90
2022/09/25 05:43:11;;;;;;;0.82;0.50;;;;;;;11.02;83.83;101645.38;5024577;28;20107;-90
2022/09/25 05:45:37;;;;;;;0.77;0.55;;;;;;;11.02;84.21;101650.63;5057615;28;20384;-90
2022/09/25 05:48:07;;;;;;;1.13;0.70;;;;;;;11.00;84.13;101653.28;5059024;28;20021;-90
2022/09/25 05:50:33;;;;;;;0.60;0.60;;;;;;;11.02;84.09;101651.47;5058568;28;20033;-90
2022/09/25 05:53:01;;;;;;;0.75;0.45;;;;;;;11.01;83.80;101659.41;5059171;28;20039;-90
2022/09/25 05:55:27;;;;;;;0.60;0.60;;;;;;;11.01;83.92;101656.78;5057317;28;20106;-90
2022/09/25 05:57:53;;;;;;;1.02;0.60;;;;;;;11.00;84.14;101662.91;5057929;28;20029;-90
2022/09/25 06:00:19;;;;;;;0.50;0.50;;;;;;;10.99;83.78;101661.19;5040830;28;20028;-90
2022/09/25 06:02:44;;;;;;;0.90;0.50;;;;;;;10.98;84.13;101662.94;5040954;28;20685;-90
2022/09/25 06:05:09;;;;;;;0.70;0.50;;;;;;;10.98;84.00;101660.31;5057421;28;20049;-90
2022/09/25 06:07:36;;;;;;;1.90;0.90;;;;;;;10.98;83.99;101665.56;5024064;28;20372;-90
2022/09/25 06:10:01;;;;;;;0.70;0.70;;;;;;;10.99;83.99;101675.16;5041153;28;20029;-90
2022/09/25 06:12:29;;;;;;;0.80;0.80;;;;;;;10.98;84.09;101664.72;5040555;28;20057;-90
2022/09/25 06:14:55;;;;;;;1.02;0.50;;;;;;;10.97;84.27;101671.72;5024578;28;20025;-90
2022/09/25 06:17:20;;;;;;;0.73;0.73;;;;;;;10.99;84.17;101666.41;5023891;28;20090;-90
2022/09/25 06:19:46;;;;;;;0.60;0.60;;;;;;;10.98;84.49;101667.34;5024090;28;20024;-90
2022/09/25 06:22:12;;;;;;;0.50;0.50;;;;;;;10.99;84.37;101679.53;5056852;28;20248;-90
2022/09/25 06:24:37;;;;;;;1.13;0.73;;;;;;;10.99;84.59;101676.91;5040674;28;20104;-90
2022/09/25 06:27:05;;;;;;;5.18;0.90;;;;;;;10.99;84.60;101669.03;5058402;28;20048;-90
2022/09/25 06:29:31;;;;;;;2.50;1.55;;;;;;;10.99;84.75;101683.03;5040079;28;20198;-90
2022/09/25 06:31:56;;;;;;;1.40;0.70;;;;;;;11.00;84.89;101681.25;5024124;28;20040;-90
2022/09/25 06:34:22;;;;;;;0.50;0.50;;;;;;;11.00;84.97;101674.25;5040261;28;20043;-90
2022/09/25 06:36:47;;;;;;;0.82;0.70;;;;;;;11.02;85.21;101682.06;5040331;28;20072;-90
2022/09/25 06:39:13;;;;;;;0.75;0.70;;;;;;;11.03;85.54;101686.41;5058345;28;20075;-90
2022/09/25 06:41:39;;;;;;;2.08;0.70;;;;;;;11.02;85.45;101674.19;5040229;28;20039;-90
2022/09/25 06:44:07;;;;;;;2.30;0.80;;;;;;;11.04;85.81;101673.28;5040365;28;20021;-90
2022/09/25 06:46:33;;;;;;;1.40;0.63;;;;;;;11.06;86.19;101674.09;5039755;28;20045;-90
2022/09/25 06:48:59;;;;;;;1.38;0.70;;;;;;;11.06;86.35;101671.47;5040566;28;20287;-90
2022/09/25 06:51:30;;;;;;;1.02;0.85;;;;;;;11.08;86.35;101674.03;5023421;28;20102;-90
2022/09/25 06:53:55;;;;;;;1.20;0.80;;;;;;;11.09;86.74;101681.84;5058007;28;20378;-90
2022/09/25 06:56:21;;;;;;;0.80;0.77;;;;;;;11.11;86.89;101684.41;5039793;28;20099;-90
2022/09/25 06:58:46;;;;;;;2.55;0.90;;;;;;;11.12;87.29;101675.66;5023484;28;20056;-90
2022/09/25 07:01:12;;;;;;;3.58;0.80;;;;;;;11.14;87.32;101676.47;5057545;28;20029;-90
2022/09/25 07:03:45;;;;;;;2.35;1.02;;;;;;;11.16;87.40;101673.81;5023373;28;20036;-90
2022/09/25 07:06:16;;;;;;;0.73;0.70;;;;;;;11.17;87.39;101671.16;5057685;28;20097;-90
2022/09/25 07:08:42;;;;;;;1.00;0.85;;;;;;;11.19;87.77;101665.84;5058126;28;20334;-90
2022/09/25 07:11:14;;;;;;;3.33;0.98;;;;;;;11.20;87.76;101671.03;5039759;28;20082;-90
2022/09/25 07:13:40;;;;;;;1.25;0.88;;;;;;;11.21;87.88;101670.13;5039581;28;20031;-90
2022/09/25 07:16:10;;;;;;;1.25;0.85;;;;;;;11.23;88.11;101670.94;5039545;28;20035;-90
2022/09/25 07:18:35;;;;;;;1.08;0.93;;;;;;;11.25;88.37;101677.00;5039052;28;20040;-90
2022/09/25 07:21:04;;;;;;;1.92;0.85;;;;;;;11.26;88.36;101667.38;5056413;28;20337;-90
2022/09/25 07:23:30;;;;;;;1.65;0.80;;;;;;;11.26;88.62;101670.88;5038752;28;20087;-90
2022/09/25 07:26:02;;;;;;;1.40;0.90;;;;;;;11.29;88.88;101668.13;5057313;28;20229;-90
2022/09/25 07:28:29;;;;;;;4.97;1.20;;;;;;;11.31;88.89;101668.97;5039562;28;20271;-90
2022/09/25 07:30:54;;;;;;;2.72;1.25;;;;;;;11.33;88.68;101671.53;5039623;28;20032;-90
2022/09/25 07:33:23;;;;;;;1.95;0.98;;;;;;;11.35;89.13;101680.22;5022735;28;20347;-90
2022/09/25 07:35:50;;;;;;;2.17;1.00;;;;;;;11.36;89.06;101673.22;5023003;28;20029;-90
2022/09/25 07:38:16;;;;;;;1.90;1.10;;;;;;;11.37;89.37;101688.91;5055517;28;20028;-90
2022/09/25 07:40:41;;;;;;;3.80;1.23;;;;;;;11.38;89.43;101682.72;5022444;28;20056;-90
2022/09/25 07:43:07;;;;;;;1.00;0.90;;;;;;;11.41;89.71;101684.41;5022967;28;20057;-90
2022/09/25 07:45:32;;;;;;;2.75;1.00;;;;;;;11.42;89.61;101680.88;5019175;28;20056;-90
2022/09/25 07:48:00;;;;;;;2.53;1.10;;;;;;;11.42;89.83;101684.34;5037471;28;20033;-90
2022/09/25 07:50:27;;;;;;;2.85;1.52;;;;;;;11.44;90.20;101682.56;5035545;28;20029;-90
2022/09/25 07:52:53;;;;;;;3.53;1.10;;;;;;;11.46;90.12;101685.13;5036726;28;20332;-90
2022/09/25 07:55:18;;;;;;;3.55;1.05;;;;;;;11.48;90.15;101685.94;5035419;28;20029;-90
2022/09/25 07:57:44;;;;;;;4.20;1.65;;;;;;;11.50;90.82;101684.13;5035279;28;20099;-90
2022/09/25 08:00:11;;;;;;;3.70;1.33;;;;;;;11.51;91.39;101686.72;5035576;28;20080;-90
2022/09/25 08:02:36;;;;;;;7.53;1.40;;;;;;;11.55;91.57;101682.22;5052395;28;20112;-90
2022/09/25 08:05:02;;;;;;;11.07;1.60;;;;;;;11.58;92.23;101676.03;5035471;28;20061;-90
2022/09/25 08:07:27;;;;;;;5.13;1.73;;;;;;;11.59;92.63;101683.84;5018943;28;20041;-90
2022/09/25 08:09:53;;;;;;;6.65;1.88;;;;;;;11.61;92.46;101682.03;5051955;28;20024;-90
2022/09/25 08:12:19;;;;;;;6.43;1.80;;;;;;;11.63;91.96;101682.84;5035147;28;20271;-90
2022/09/25 08:14:45;;;;;;;3.55;1.08;;;;;;;11.65;91.89;101682.78;5035048;28;20040;-90
2022/09/25 08:17:10;;;;;;;2.15;0.90;;;;;;;11.66;91.82;101681.88;5019005;28;20052;-90
2022/09/25 08:19:36;;;;;;;4.10;1.55;;;;;;;11.68;91.62;101682.69;5051485;28;20033;-90
2022/09/25 08:22:01;;;;;;;5.25;1.58;;;;;;;11.69;91.82;101680.00;5035425;28;20033;-90
2022/09/25 08:24:27;;;;;;;3.67;1.20;;;;;;;11.72;92.18;101692.19;5034880;28;20037;-90
2022/09/25 08:26:52;;;;;;;6.22;1.25;;;;;;;11.75;92.28;101689.47;5018951;28;20033;-90
2022/09/25 08:29:18;;;;;;;2.67;0.90;;;;;;;11.77;92.50;101685.03;5018533;28;20074;-90
2022/09/25 08:31:43;;;;;;;8.57;1.20;;;;;;;11.80;92.02;101692.78;5035232;28;20063;-90
2022/09/25 08:34:09;;;;;;;4.55;1.10;;;;;;;11.82;91.16;101684.88;5051897;28;20038;-90
2022/09/25 08:36:35;;;;;;;2.75;0.98;;;;;;;11.86;90.70;101686.47;5034822;28;20217;-90
2022/09/25 08:39:00;;;;;;;7.70;1.50;;;;;;;11.89;90.85;101689.00;5035539;28;20360;-90
2022/09/25 08:41:49;;;;;;;7.63;0.98;;;;;;;11.93;91.05;101682.78;5036606;28;20041;-90
2022/09/25 08:44:34;;;;;;;2.63;0.95;;;;;;;11.97;90.69;101687.03;5036121;28;20021;-90
2022/09/25 08:49:59;;;;;;;4.18;1.08;;;;;;;12.04;90.54;101677.16;5036508;28;20049;-90
2022/09/25 08:52:25;;;;;;;3.53;0.80;;;;;;;12.06;90.05;101675.34;5036536;28;20184;-90
2022/09/25 08:54:51;;;;;;;3.22;1.27;;;;;;;12.10;89.85;101674.34;5038896;28;20021;-90
2022/09/25 08:57:42;;;;;;;6.70;0.88;;;;;;;12.12;89.40;101679.56;5038835;28;20087;-90
2022/09/25 09:00:19;;;;;;;3.70;1.00;;;;;;;12.14;88.71;101675.13;5040171;28;20037;-90
2022/09/25 09:02:51;;;;;;;2.97;0.70;;;;;;;12.18;89.34;101671.47;5040081;28;20013;-90
2022/09/25 09:05:30;;;;;;;2.05;0.93;;;;;;;12.20;88.79;101680.16;5039611;28;20033;-90
2022/09/25 09:08:01;;;;;;;5.68;0.85;;;;;;;12.22;89.01;101675.69;5055372;28;20052;-90
2022/09/25 09:10:44;;;;;;;2.13;1.05;;;;;;;12.22;88.79;101676.53;5054945;28;20029;-90
2022/09/25 09:13:39;;;;;;;3.85;1.20;;;;;;;12.22;88.80;101671.28;5040029;28;20025;-90
2022/09/25 09:16:32;;;;;;;5.03;1.15;;;;;;;12.23;88.10;101672.16;5054756;28;20216;-90
2022/09/25 09:19:02;;;;;;;5.18;1.00;;;;;;;12.26;88.30;101679.91;5034400;28;20378;-90
2022/09/25 09:21:34;;;;;;;1.75;0.90;;;;;;;12.27;88.59;101674.63;5054591;28;20263;-90
2022/09/25 09:24:05;;;;;;;3.00;0.82;;;;;;;12.28;88.16;101683.38;5039736;28;20021;-90
2022/09/25 09:26:40;;;;;;;5.10;0.70;;;;;;;12.29;87.71;101672.78;5039226;28;20033;-90
2022/09/25 09:29:44;;;;;;;2.53;0.80;;;;;;;12.31;87.34;101670.13;5039727;28;20078;-90
2022/09/25 09:32:18;;;;;;;2.55;0.80;;;;;;;12.33;87.16;101672.69;5038188;28;20382;-90
2022/09/25 09:35:16;;;;;;;3.50;0.70;;;;;;;12.35;86.47;101671.75;5039361;28;20070;-90
2022/09/25 09:37:52;;;;;;;1.77;0.63;;;;;;;12.36;85.47;101670.81;5039552;28;20045;-90
2022/09/25 09:40:53;;;;;;;2.05;0.65;;;;;;;12.42;85.39;101678.47;5054448;28;20029;-90
2022/09/25 09:43:49;;;;;;;5.22;0.88;;;;;;;12.44;84.82;101681.94;5027095;28;20035;-90
2022/09/25 09:46:33;;;;;;;6.63;0.80;;;;;;;12.46;84.39;101685.38;5028298;28;20128;-90
2022/09/25 09:49:20;;;;;;;1.38;0.75;;;;;;;12.51;83.36;101685.19;5054445;28;20039;-90
2022/09/25 09:51:58;;;;;;;2.85;0.60;;;;;;;12.55;83.03;101678.94;5054309;28;20031;-90
2022/09/25 09:54:41;;;;;;;2.97;0.50;;;;;;;12.59;83.39;101682.31;5054118;28;20021;-90
2022/09/25 09:57:33;;;;;;;2.55;0.80;;;;;;;12.63;83.27;101676.03;5039047;28;20200;-90
2022/09/25 10:00:12;;;;;;;7.18;0.82;;;;;;;12.69;83.71;101675.78;5037478;28;20033;-90
2022/09/25 10:03:03;;;;;;;4.90;0.90;;;;;;;12.72;83.60;101675.69;5038922;28;20049;-90
2022/09/25 10:05:46;;;;;;;4.70;0.70;;;;;;;12.74;81.93;101668.59;5038412;28;20079;-90
2022/09/25 10:08:12;;;;;;;5.55;1.00;;;;;;;12.77;82.41;101667.63;5038502;28;20329;-89
2022/09/25 10:10:41;;;;;;;2.30;0.75;;;;;;;12.80;82.27;101673.63;5020967;28;20029;-90
2022/09/25 10:13:24;;;;;;;;;;;;;;;12.80;80.06;101678.88;5054636;28;20083;-90
2022/09/25 10:16:18;;;;;;;2.38;0.50;;;;;;;12.83;79.24;101673.53;5038861;28;20085;-90
2022/09/25 10:19:05;;;;;;;2.05;0.50;;;;;;;12.87;79.63;101666.38;5038742;28;20101;-90
2022/09/25 10:21:46;;;;;;;2.08;0.47;;;;;;;12.90;78.62;101671.53;5036979;28;20343;-90
2022/09/25 10:25:07;;;;;;;4.15;0.68;;;;;;;12.91;77.88;101660.09;5053564;28;20063;-90
2022/09/25 10:27:47;;;;;;;1.38;0.73;;;;;;;12.94;75.75;101669.66;4999348;28;20044;-90
2022/09/25 10:30:22;;;;;;;1.08;0.40;;;;;;;12.98;77.00;101660.72;5032497;28;20033;-90
2022/09/25 10:33:08;;;;;;;2.85;0.93;;;;;;;13.02;77.44;101657.06;5037488;28;20038;-90
2022/09/25 10:35:36;;;;;;;1.58;0.65;;;;;;;13.06;77.93;101658.66;5036712;28;20025;-90
2022/09/25 10:38:03;;;;;;;3.35;0.77;;;;;;;13.07;77.90;101653.34;5053708;28;20025;-90
2022/09/25 10:40:33;;;;;;;3.90;0.60;;;;;;;13.08;76.43;101654.22;5019993;28;20285;-90
2022/09/25 10:43:05;;;;;;;4.18;0.65;;;;;;;13.10;76.92;101659.38;5053510;28;20021;-90
2022/09/25 10:45:33;;;;;;;0.68;0.30;;;;;;;13.11;76.46;101653.22;5042125;28;20321;-90
2022/09/25 10:50:43;;;;;;;2.75;0.60;;;;;;;13.13;76.82;101661.91;5042897;28;20268;-90
2022/09/25 10:53:28;;;;;;;2.10;0.68;;;;;;;13.16;76.67;101654.75;5023748;28;20029;-90
2022/09/25 10:56:04;;;;;;;1.85;0.57;;;;;;;13.18;76.86;101652.91;5058111;28;20228;-90
2022/09/25 10:58:35;;;;;;;0.90;0.43;;;;;;;13.22;78.93;101653.66;5057508;28;20067;-90
2022/09/25 11:01:02;;;;;;;1.73;0.50;;;;;;;13.25;78.67;101654.41;5056582;28;20159;-90
2022/09/25 11:03:35;;;;;;;1.63;0.65;;;;;;;13.29;78.82;101654.28;5057445;28;20032;-90
2022/09/25 11:06:09;;;;;;;1.92;0.70;;;;;;;13.31;78.08;101648.06;5056709;28;20245;-90
2022/09/25 11:08:38;;;;;;;2.95;0.70;;;;;;;13.32;77.42;101656.84;5055910;28;20025;-90
2022/09/25 11:11:07;;;;;;;2.72;0.40;;;;;;;13.31;77.26;101645.44;5039791;28;20020;-90
2022/09/25 11:13:45;;;;;;;1.85;0.40;;;;;;;13.32;77.86;101639.28;5039606;28;20028;-90
2022/09/25 11:16:11;;;;;;;2.97;0.55;;;;;;;13.33;77.41;101640.13;5055526;28;20311;-90
2022/09/25 11:18:49;;;;;;;0.65;0.35;;;;;;;13.33;76.37;101638.34;5039593;28;20024;-90
2022/09/25 11:21:25;;;;;;;2.20;0.30;;;;;;;13.34;76.50;101639.22;5057197;28;20036;-90
2022/09/25 11:24:22;;;;;;;1.40;0.40;;;;;;;13.34;75.48;101632.19;5057242;28;20036;-90
2022/09/25 11:27:01;;;;;;;3.63;0.50;;;;;;;13.34;74.98;101632.19;5055969;28;20032;-90
2022/09/25 11:29:41;;;;;;;4.25;1.08;;;;;;;13.34;74.90;101629.53;5055722;28;20052;-90
2022/09/25 11:32:16;;;;;;;1.42;0.40;;;;;;;13.34;74.99;101626.91;5056328;28;20013;-90
2022/09/25 11:35:05;;;;;;;2.83;0.40;;;;;;;13.32;74.75;101623.50;5055684;28;20064;-90
2022/09/25 11:37:41;;;;;;;4.88;1.30;;;;;;;13.32;75.28;101620.88;5055678;28;20035;-90
2022/09/25 11:43:39;;;;;;;2.35;0.60;;;;;;;13.35;76.60;101611.97;5057504;28;20107;-91
2022/09/25 11:46:18;;;;;;;2.30;0.35;;;;;;;13.38;77.18;101609.22;5055745;28;20048;-90
2022/09/25 11:48:53;;;;;;;1.75;0.50;;;;;;;13.42;77.33;101600.28;5055728;28;20028;-91
2022/09/25 11:51:34;;;;;;;1.10;0.38;;;;;;;13.47;78.36;101615.91;5056623;28;20063;-90
2022/09/25 11:54:21;;;;;;;2.22;0.50;;;;;;;13.52;77.76;101611.31;5055704;28;20324;-91
2022/09/25 11:57:12;;;;;;;1.27;0.40;;;;;;;13.56;79.10;101603.22;5057000;28;20453;-91
2022/09/25 11:59:37;;;;;;;1.35;0.43;;;;;;;13.61;78.63;101598.63;5036007;28;20385;-91
2022/09/25 12:02:29;;;;;;;1.20;0.32;;;;;;;13.63;75.60;101599.41;5055489;28;20029;-90
2022/09/25 12:05:24;;;;;;;1.58;0.55;;;;;;;13.67;76.29;101594.03;5055649;28;20296;-91
2022/09/25 12:08:25;;;;;;;4.38;1.02;;;;;;;13.69;74.57;101600.94;5054405;28;20116;-91
2022/09/25 12:11:13;;;;;;;0.60;0.25;;;;;;;13.71;74.30;101599.09;5055387;28;20051;-91
2022/09/25 12:13:43;;;;;;;0.93;0.30;;;;;;;13.74;73.32;101591.06;5056916;28;20075;-91